createdAt,value
2023-04-17T00:01:05.472Z,100.00
2023-04-17T00:03:32.188Z,100.00
2023-04-17T00:05:58.874Z,100.00
2023-04-17T00:08:25.317Z,100.00
2023-04-17T00:11:04.149Z,100.00
2023-04-17T00:13:34.007Z,100.00
2023-04-17T00:16:00.518Z,100.00
2023-04-17T00:18:27.049Z,100.00
2023-04-17T00:20:53.682Z,100.00
2023-04-17T00:23:20.269Z,100.00
2023-04-17T00:25:46.736Z,100.00
2023-04-17T00:28:13.195Z,100.00
2023-04-17T00:30:39.648Z,100.00
2023-04-17T00:33:06.163Z,100.00
2023-04-17T00:35:32.584Z,100.00
2023-04-17T00:37:58.976Z,100.00
2023-04-17T00:40:25.459Z,100.00
2023-04-17T00:42:56.028Z,100.00
2023-04-17T00:45:22.548Z,100.00
2023-04-17T00:47:49.971Z,100.00
2023-04-17T00:50:16.703Z,100.00
2023-04-17T00:52:44.623Z,100.00
2023-04-17T00:55:11.470Z,100.00
2023-04-17T00:57:37.937Z,100.00
2023-04-17T01:00:05.836Z,100.00
2023-04-17T01:02:32.572Z,100.00
2023-04-17T01:04:59.107Z,100.00
2023-04-17T01:07:26.212Z,100.00
2023-04-17T01:09:53.577Z,100.00
2023-04-17T01:12:22.562Z,100.00
2023-04-17T01:14:53.622Z,100.00
2023-04-17T01:17:21.328Z,100.00
2023-04-17T01:19:49.141Z,100.00
2023-04-17T01:22:16.551Z,100.00
2023-04-17T01:24:43.350Z,100.00
2023-04-17T01:27:09.885Z,100.00
2023-04-17T01:29:36.326Z,100.00
2023-04-17T01:32:02.780Z,100.00
2023-04-17T01:34:29.208Z,100.00
2023-04-17T01:36:55.632Z,100.00
2023-04-17T01:39:22.097Z,100.00
2023-04-17T01:41:48.576Z,100.00
2023-04-17T01:44:15.050Z,100.00
2023-04-17T01:46:41.492Z,100.00
2023-04-17T01:49:07.957Z,100.00
2023-04-17T01:51:34.435Z,100.00
2023-04-17T01:54:00.894Z,100.00
2023-04-17T01:56:27.310Z,100.00
2023-04-17T01:58:54.241Z,100.00
2023-04-17T02:01:21.021Z,100.00
2023-04-17T02:03:47.752Z,100.00
2023-04-17T02:06:15.631Z,100.00
2023-04-17T02:08:42.345Z,100.00
2023-04-17T02:11:10.117Z,100.00
2023-04-17T02:13:36.817Z,100.00
2023-04-17T02:16:03.439Z,100.00
2023-04-17T02:18:29.915Z,100.00
2023-04-17T02:20:56.326Z,100.00
2023-04-17T02:23:22.776Z,100.00
2023-04-17T02:25:49.208Z,100.00
2023-04-17T02:28:15.773Z,100.00
2023-04-17T02:30:42.470Z,100.00
2023-04-17T02:33:08.953Z,100.00
2023-04-17T02:35:35.695Z,100.00
2023-04-17T02:38:02.131Z,100.00
2023-04-17T02:40:28.618Z,100.00
2023-04-17T02:42:55.052Z,100.00
2023-04-17T02:45:21.619Z,100.00
2023-04-17T02:47:48.553Z,100.00
2023-04-17T02:50:15.031Z,100.00
2023-04-17T02:52:41.537Z,100.00
2023-04-17T02:55:09.662Z,100.00
2023-04-17T02:57:36.148Z,100.00
2023-04-17T03:00:05.453Z,100.00
2023-04-17T03:02:32.138Z,100.00
2023-04-17T03:05:02.018Z,100.00
2023-04-17T03:07:28.527Z,100.00
2023-04-17T03:09:57.468Z,100.00
2023-04-17T03:12:23.991Z,100.00
2023-04-17T03:14:50.786Z,100.00
2023-04-17T03:17:17.805Z,100.00
2023-04-17T03:19:44.221Z,100.00
2023-04-17T03:22:13.170Z,100.00
2023-04-17T03:24:41.208Z,100.00
2023-04-17T03:27:07.749Z,100.00
2023-04-17T03:29:34.289Z,100.00
2023-04-17T03:32:00.884Z,100.00
2023-04-17T03:34:28.987Z,100.00
2023-04-17T03:36:55.818Z,100.00
2023-04-17T03:39:22.333Z,100.00
2023-04-17T03:41:48.816Z,100.00
2023-04-17T03:44:15.528Z,100.00
2023-04-17T03:46:41.980Z,100.00
2023-04-17T03:49:08.467Z,100.00
2023-04-17T03:51:34.860Z,100.00
2023-04-17T03:54:01.295Z,100.00
2023-04-17T03:56:27.719Z,100.00
2023-04-17T03:58:54.156Z,100.00
2023-04-17T04:01:22.324Z,100.00
2023-04-17T04:03:49.125Z,100.00
2023-04-17T04:06:20.218Z,100.00
2023-04-17T04:08:46.763Z,100.00
2023-04-17T04:11:13.464Z,100.00
2023-04-17T04:13:39.995Z,100.00
2023-04-17T04:16:06.940Z,100.00
2023-04-17T04:18:33.511Z,100.00
2023-04-17T04:21:00.065Z,100.00
2023-04-17T04:23:27.814Z,100.00
2023-04-17T04:25:57.867Z,100.00
2023-04-17T04:28:24.416Z,100.00
2023-04-17T04:30:53.579Z,100.00
2023-04-17T04:33:20.852Z,100.00
2023-04-17T04:35:48.313Z,100.00
2023-04-17T04:38:17.248Z,100.00
2023-04-17T04:40:49.871Z,100.00
2023-04-17T04:43:16.488Z,100.00
2023-04-17T04:45:43.019Z,100.00
2023-04-17T04:48:09.580Z,100.00
2023-04-17T04:50:36.082Z,100.00
2023-04-17T04:53:02.557Z,100.00
2023-04-17T04:55:30.667Z,100.00
2023-04-17T04:57:57.590Z,100.00
2023-04-17T05:00:24.791Z,100.00
2023-04-17T05:02:51.376Z,100.00
2023-04-17T05:05:17.888Z,100.00
2023-04-17T05:07:44.377Z,100.00
2023-04-17T05:10:10.886Z,100.00
2023-04-17T05:12:37.330Z,100.00
2023-04-17T05:15:04.113Z,100.00
2023-04-17T05:17:30.829Z,100.00
2023-04-17T05:19:57.289Z,100.00
2023-04-17T05:22:23.873Z,100.00
2023-04-17T05:24:50.504Z,100.00
2023-04-17T05:27:16.993Z,100.00
2023-04-17T05:29:43.463Z,100.00
2023-04-17T05:32:10.016Z,100.00
2023-04-17T05:34:36.441Z,100.00
2023-04-17T05:37:03.361Z,100.00
2023-04-17T05:39:29.926Z,100.00
2023-04-17T05:41:56.466Z,100.00
2023-04-17T05:44:22.962Z,100.00
2023-04-17T05:46:49.390Z,100.00
2023-04-17T05:49:15.998Z,100.00
2023-04-17T05:51:42.495Z,100.00
2023-04-17T05:54:08.943Z,100.00
2023-04-17T05:56:35.671Z,100.00
2023-04-17T05:59:02.154Z,100.00
2023-04-17T06:01:29.745Z,100.00
2023-04-17T06:03:56.635Z,100.00
2023-04-17T06:06:23.349Z,100.00
2023-04-17T06:08:49.842Z,100.00
2023-04-17T06:11:17.218Z,100.00
2023-04-17T06:13:43.737Z,100.00
2023-04-17T06:16:10.863Z,100.00
2023-04-17T06:18:37.576Z,100.00
2023-04-17T06:21:04.665Z,100.00
2023-04-17T06:23:31.184Z,100.00
2023-04-17T06:25:57.823Z,100.00
2023-04-17T06:28:24.368Z,100.00
2023-04-17T06:30:51.155Z,100.00
2023-04-17T06:33:17.725Z,100.00
2023-04-17T06:35:44.183Z,100.00
2023-04-17T06:38:10.726Z,100.00
2023-04-17T06:40:37.909Z,100.00
2023-04-17T06:43:04.952Z,100.00
2023-04-17T06:45:33.590Z,100.00
2023-04-17T06:48:00.175Z,100.00
2023-04-17T06:50:27.043Z,100.00
2023-04-17T06:52:53.540Z,100.00
2023-04-17T06:55:20.077Z,100.00
2023-04-17T06:57:46.553Z,100.00
2023-04-17T07:00:13.750Z,100.00
2023-04-17T07:02:40.415Z,100.00
2023-04-17T07:05:07.743Z,100.00
2023-04-17T07:07:35.836Z,100.00
2023-04-17T07:10:03.760Z,100.00
2023-04-17T07:12:30.474Z,100.00
2023-04-17T07:14:56.959Z,100.00
2023-04-17T07:17:23.503Z,100.00
2023-04-17T07:19:50.001Z,100.00
2023-04-17T07:22:16.509Z,100.00
2023-04-17T07:24:42.994Z,100.00
2023-04-17T07:27:09.643Z,100.00
2023-04-17T07:29:36.210Z,100.00
2023-04-17T07:32:03.209Z,100.00
2023-04-17T07:34:31.284Z,100.00
2023-04-17T07:36:57.804Z,100.00
2023-04-17T07:39:26.917Z,100.00
2023-04-17T07:41:53.394Z,100.00
2023-04-17T07:44:19.913Z,100.00
2023-04-17T07:46:46.450Z,100.00
2023-04-17T07:49:13.190Z,100.00
2023-04-17T07:51:41.221Z,100.00
2023-04-17T07:54:07.813Z,100.00
2023-04-17T07:56:34.649Z,100.00
2023-04-17T07:59:01.168Z,100.00
2023-04-17T08:01:27.721Z,100.00
2023-04-17T08:03:55.482Z,100.00
2023-04-17T08:06:23.512Z,100.00
2023-04-17T08:08:50.049Z,100.00
2023-04-17T08:11:16.533Z,100.00
2023-04-17T08:13:43.028Z,100.00
2023-04-17T08:16:10.050Z,100.00
2023-04-17T08:18:37.780Z,100.00
2023-04-17T08:21:04.727Z,100.00
2023-04-17T08:23:31.440Z,100.00
2023-04-17T08:25:58.298Z,100.00
2023-04-17T08:28:25.172Z,100.00
2023-04-17T08:30:52.229Z,100.00
2023-04-17T08:33:18.812Z,100.00
2023-04-17T08:35:45.720Z,100.00
2023-04-17T08:38:14.442Z,100.00
2023-04-17T08:40:42.942Z,100.00
2023-04-17T08:43:19.576Z,100.00
2023-04-17T08:45:55.166Z,100.00
2023-04-17T08:48:23.692Z,100.00
2023-04-17T08:50:51.939Z,100.00
2023-04-17T08:53:19.105Z,100.00
2023-04-17T08:55:46.879Z,100.00
2023-04-17T08:58:14.672Z,100.00
2023-04-17T09:00:43.332Z,100.00
2023-04-17T09:03:14.309Z,100.00
2023-04-17T09:05:45.855Z,100.00
2023-04-17T09:08:17.702Z,100.00
2023-04-17T09:10:46.261Z,100.00
2023-04-17T09:13:25.007Z,100.00
2023-04-17T09:16:06.238Z,100.00
2023-04-17T09:18:34.608Z,100.00
2023-04-17T09:21:02.392Z,100.00
2023-04-17T09:23:31.141Z,100.00
2023-04-17T09:26:12.342Z,100.00
2023-04-17T09:28:39.986Z,100.00
2023-04-17T09:31:24.803Z,100.00
2023-04-17T09:34:08.459Z,100.00
2023-04-17T09:36:37.848Z,100.00
2023-04-17T09:39:17.950Z,100.00
2023-04-17T09:41:44.550Z,100.00
2023-04-17T09:44:12.412Z,100.00
2023-04-17T09:46:45.866Z,100.00
2023-04-17T09:49:15.578Z,100.00
2023-04-17T09:51:42.419Z,100.00
2023-04-17T09:54:15.052Z,100.00
2023-04-17T09:56:43.131Z,100.00
2023-04-17T09:59:10.370Z,100.00
2023-04-17T10:01:37.929Z,100.00
2023-04-17T10:04:05.352Z,100.00
2023-04-17T10:06:34.078Z,100.00
2023-04-17T10:09:01.136Z,100.00
2023-04-17T10:11:31.998Z,100.00
2023-04-17T10:14:19.634Z,100.00
2023-04-17T10:16:47.336Z,100.00
2023-04-17T10:19:34.128Z,100.00
2023-04-17T10:22:16.043Z,100.00
2023-04-17T10:24:43.093Z,99.55
2023-04-17T10:27:25.634Z,99.13
2023-04-17T10:29:54.064Z,95.52
2023-04-17T10:32:21.683Z,98.05
2023-04-17T10:34:48.351Z,96.20
2023-04-17T10:37:17.734Z,94.21
2023-04-17T10:40:01.078Z,93.76
2023-04-17T10:42:30.181Z,96.84
2023-04-17T10:45:01.748Z,95.01
2023-04-17T10:47:35.553Z,93.58
2023-04-17T10:50:04.027Z,94.81
2023-04-17T10:52:34.611Z,93.49
2023-04-17T10:55:04.255Z,94.02
2023-04-17T10:57:53.466Z,88.72
2023-04-17T11:00:28.279Z,90.37
2023-04-17T11:02:55.109Z,88.70
2023-04-17T11:05:23.957Z,88.17
2023-04-17T11:07:51.452Z,86.65
2023-04-17T11:10:20.201Z,84.31
2023-04-17T11:12:53.392Z,84.88
2023-04-17T11:15:31.224Z,89.51
2023-04-17T11:17:59.281Z,90.35
2023-04-17T11:20:27.971Z,89.87
2023-04-17T11:22:54.542Z,88.12
2023-04-17T11:25:27.002Z,84.33
2023-04-17T11:27:57.897Z,83.22
2023-04-17T11:30:42.181Z,82.39
2023-04-17T11:33:09.073Z,81.44
2023-04-17T11:35:37.392Z,81.02
2023-04-17T11:38:23.665Z,79.43
2023-04-17T11:40:55.576Z,79.40
2023-04-17T11:43:23.741Z,80.01
2023-04-17T11:45:52.770Z,79.24
2023-04-17T11:48:27.468Z,79.09
2023-04-17T11:51:01.088Z,78.45
2023-04-17T11:53:27.803Z,77.69
2023-04-17T11:56:14.475Z,78.53
2023-04-17T11:58:54.877Z,76.90
2023-04-17T12:01:26.332Z,78.49
2023-04-17T12:03:57.706Z,75.46
2023-04-17T12:06:35.313Z,77.51
2023-04-17T12:09:02.960Z,75.45
2023-04-17T12:11:31.273Z,72.16
2023-04-17T12:13:57.895Z,70.56
2023-04-17T12:16:25.846Z,71.98
2023-04-17T12:18:53.016Z,72.21
2023-04-17T12:21:23.832Z,72.93
2023-04-17T12:23:51.015Z,71.35
2023-04-17T12:26:17.556Z,70.78
2023-04-17T12:28:44.084Z,71.67
2023-04-17T12:31:10.698Z,73.03
2023-04-17T12:33:37.402Z,72.76
2023-04-17T12:36:05.223Z,72.19
2023-04-17T12:38:32.210Z,72.67
2023-04-17T12:40:58.701Z,72.17
2023-04-17T12:43:25.441Z,68.16
2023-04-17T12:45:55.030Z,70.49
2023-04-17T12:48:21.647Z,67.60
2023-04-17T12:50:48.162Z,66.79
2023-04-17T12:53:15.264Z,63.92
2023-04-17T12:55:44.182Z,64.43
2023-04-17T12:58:13.218Z,61.25
2023-04-17T13:00:43.495Z,61.19
2023-04-17T13:03:10.772Z,62.49
2023-04-17T13:05:37.676Z,62.93
2023-04-17T13:08:04.246Z,60.33
2023-04-17T13:10:31.534Z,61.13
2023-04-17T13:12:58.030Z,61.69
2023-04-17T13:15:24.452Z,63.58
2023-04-17T13:17:50.954Z,61.58
2023-04-17T13:20:17.574Z,61.82
2023-04-17T13:22:44.141Z,61.81
2023-04-17T13:25:10.616Z,61.72
2023-04-17T13:27:37.429Z,61.23
2023-04-17T13:30:04.251Z,60.74
2023-04-17T13:32:30.747Z,60.06
2023-04-17T13:34:58.745Z,60.73
2023-04-17T13:37:25.808Z,63.05
2023-04-17T13:39:52.589Z,62.97
2023-04-17T13:42:19.530Z,61.36
2023-04-17T13:44:46.125Z,62.28
2023-04-17T13:47:13.276Z,63.25
2023-04-17T13:49:39.755Z,63.92
2023-04-17T13:52:06.509Z,62.55
2023-04-17T13:54:33.084Z,61.36
2023-04-17T13:56:59.546Z,61.74
2023-04-17T13:59:26.194Z,59.58
2023-04-17T14:01:52.812Z,58.08
2023-04-17T14:04:19.666Z,57.59
2023-04-17T14:06:49.587Z,58.29
2023-04-17T14:09:17.038Z,61.68
2023-04-17T14:11:43.613Z,60.14
2023-04-17T14:14:12.519Z,60.01
2023-04-17T14:16:40.622Z,58.54
2023-04-17T14:19:13.969Z,57.66
2023-04-17T14:21:41.565Z,57.77
2023-04-17T14:24:08.621Z,57.99
2023-04-17T14:26:35.886Z,54.37
2023-04-17T14:29:02.370Z,55.66
2023-04-17T14:31:28.899Z,55.64
2023-04-17T14:33:55.438Z,56.30
2023-04-17T14:36:21.938Z,58.26
2023-04-17T14:38:51.170Z,57.74
2023-04-17T14:41:18.145Z,60.18
2023-04-17T14:43:44.887Z,60.10
2023-04-17T14:46:11.874Z,60.82
2023-04-17T14:48:47.952Z,60.71
2023-04-17T14:51:18.589Z,60.22
2023-04-17T14:53:45.225Z,59.46
2023-04-17T14:56:11.759Z,58.84
2023-04-17T14:58:38.246Z,57.04
2023-04-17T15:01:04.844Z,56.01
2023-04-17T15:03:32.281Z,56.73
2023-04-17T15:05:59.401Z,56.72
2023-04-17T15:08:25.832Z,55.57
2023-04-17T15:10:52.278Z,56.89
2023-04-17T15:13:18.731Z,58.23
2023-04-17T15:15:45.215Z,57.98
2023-04-17T15:18:11.694Z,58.42
2023-04-17T15:20:38.174Z,57.97
2023-04-17T15:23:05.740Z,59.52
2023-04-17T15:25:32.282Z,59.89
2023-04-17T15:27:58.697Z,57.41
2023-04-17T15:30:25.223Z,55.54
2023-04-17T15:32:51.668Z,54.71
2023-04-17T15:35:18.329Z,56.43
2023-04-17T15:37:44.853Z,58.17
2023-04-17T15:40:11.706Z,59.08
2023-04-17T15:42:38.195Z,58.19
2023-04-17T15:45:05.322Z,58.51
2023-04-17T15:47:31.818Z,58.40
2023-04-17T15:49:58.330Z,58.65
2023-04-17T15:52:24.908Z,58.66
2023-04-17T15:54:51.498Z,59.26
2023-04-17T15:57:17.975Z,59.51
2023-04-17T15:59:44.527Z,60.50
2023-04-17T16:02:12.973Z,60.33
2023-04-17T16:04:39.993Z,61.28
2023-04-17T16:07:06.651Z,60.93
2023-04-17T16:09:33.080Z,60.20
2023-04-17T16:11:59.691Z,59.89
2023-04-17T16:14:26.704Z,59.52
2023-04-17T16:16:53.275Z,57.76
2023-04-17T16:19:19.684Z,58.14
2023-04-17T16:21:46.102Z,55.75
2023-04-17T16:24:12.587Z,57.53
2023-04-17T16:26:39.018Z,58.17
2023-04-17T16:29:05.489Z,58.08
2023-04-17T16:31:32.113Z,57.17
2023-04-17T16:33:58.604Z,57.03
2023-04-17T16:36:27.226Z,57.55
2023-04-17T16:38:53.690Z,58.41
2023-04-17T16:41:20.435Z,57.61
2023-04-17T16:43:46.864Z,57.03
2023-04-17T16:46:22.184Z,55.37
2023-04-17T16:48:51.292Z,57.79
2023-04-17T16:51:20.193Z,55.91
2023-04-17T16:53:50.438Z,55.81
2023-04-17T16:56:16.994Z,56.96
2023-04-17T16:58:43.467Z,55.13
2023-04-17T17:01:09.976Z,55.76
2023-04-17T17:03:38.018Z,55.55
2023-04-17T17:06:06.965Z,56.10
2023-04-17T17:08:33.467Z,56.73
2023-04-17T17:11:00.173Z,56.26
2023-04-17T17:13:26.877Z,56.70
2023-04-17T17:15:53.381Z,55.58
2023-04-17T17:18:19.844Z,56.28
2023-04-17T17:20:48.935Z,55.73
2023-04-17T17:23:15.524Z,54.58
2023-04-17T17:25:41.963Z,54.81
2023-04-17T17:28:08.407Z,55.39
2023-04-17T17:30:34.880Z,55.39
2023-04-17T17:33:01.427Z,56.81
2023-04-17T17:35:27.980Z,56.71
2023-04-17T17:37:54.947Z,56.67
2023-04-17T17:40:21.452Z,57.59
2023-04-17T17:42:47.926Z,58.38
2023-04-17T17:45:14.527Z,58.13
2023-04-17T17:47:42.142Z,58.24
2023-04-17T17:50:08.963Z,57.91
2023-04-17T17:52:35.556Z,57.00
2023-04-17T17:55:02.149Z,58.30
2023-04-17T17:57:38.431Z,59.58
2023-04-17T18:00:09.670Z,59.75
2023-04-17T18:02:36.334Z,58.74
2023-04-17T18:05:03.180Z,60.15
2023-04-17T18:07:30.264Z,58.79
2023-04-17T18:09:56.661Z,59.58
2023-04-17T18:12:23.145Z,60.71
2023-04-17T18:14:49.616Z,62.24
2023-04-17T18:17:16.105Z,63.07
2023-04-17T18:19:43.502Z,64.64
2023-04-17T18:22:10.212Z,65.12
2023-04-17T18:24:36.798Z,65.69
2023-04-17T18:27:03.345Z,65.16
2023-04-17T18:29:30.226Z,64.83
2023-04-17T18:31:56.771Z,66.03
2023-04-17T18:34:23.382Z,65.24
2023-04-17T18:36:50.960Z,64.89
2023-04-17T18:39:19.843Z,67.13
2023-04-17T18:41:49.344Z,68.65
2023-04-17T18:44:16.127Z,69.91
2023-04-17T18:46:43.698Z,67.88
2023-04-17T18:49:10.128Z,70.82
2023-04-17T18:51:37.735Z,72.55
2023-04-17T18:54:04.908Z,75.75
2023-04-17T18:56:31.412Z,78.27
2023-04-17T18:58:57.892Z,79.42
2023-04-17T19:01:24.318Z,82.00
2023-04-17T19:03:52.962Z,83.77
2023-04-17T19:06:19.462Z,83.09
2023-04-17T19:08:46.030Z,85.17
2023-04-17T19:11:12.708Z,85.03
2023-04-17T19:13:39.847Z,85.87
2023-04-17T19:16:06.410Z,85.87
2023-04-17T19:18:32.972Z,84.79
2023-04-17T19:20:59.445Z,85.62
2023-04-17T19:23:26.013Z,89.24
2023-04-17T19:25:55.156Z,89.13
2023-04-17T19:28:22.574Z,90.17
2023-04-17T19:30:49.097Z,92.55
2023-04-17T19:33:15.558Z,94.01
2023-04-17T19:35:42.006Z,94.31
2023-04-17T19:38:08.453Z,96.56
2023-04-17T19:40:34.980Z,96.76
2023-04-17T19:43:02.215Z,98.30
2023-04-17T19:45:29.227Z,100.00
2023-04-17T19:47:57.198Z,100.00
2023-04-17T19:50:27.406Z,100.00
2023-04-17T19:52:59.666Z,100.00
2023-04-17T19:55:27.424Z,100.00
2023-04-17T19:57:56.551Z,100.00
2023-04-17T20:00:24.170Z,100.00
2023-04-17T20:02:51.097Z,100.00
2023-04-17T20:05:18.874Z,100.00
2023-04-17T20:07:45.975Z,100.00
2023-04-17T20:10:12.993Z,100.00
2023-04-17T20:12:39.569Z,100.00
2023-04-17T20:15:06.580Z,100.00
2023-04-17T20:17:33.080Z,100.00
2023-04-17T20:19:59.553Z,100.00
2023-04-17T20:22:26.129Z,100.00
2023-04-17T20:24:52.670Z,100.00
2023-04-17T20:27:19.117Z,100.00
2023-04-17T20:29:45.640Z,100.00
2023-04-17T20:32:12.196Z,100.00
2023-04-17T20:34:38.636Z,100.00
2023-04-17T20:37:05.132Z,100.00
2023-04-17T20:39:32.090Z,100.00
2023-04-17T20:41:58.523Z,100.00
2023-04-17T20:44:25.017Z,100.00
2023-04-17T20:46:51.575Z,100.00
2023-04-17T20:49:18.012Z,100.00
2023-04-17T20:51:45.023Z,100.00
2023-04-17T20:54:11.738Z,100.00
2023-04-17T20:56:38.441Z,100.00
2023-04-17T20:59:04.890Z,100.00
2023-04-17T21:01:31.533Z,100.00
2023-04-17T21:03:58.367Z,100.00
2023-04-17T21:06:25.948Z,100.00
2023-04-17T21:08:52.786Z,100.00
2023-04-17T21:11:19.995Z,100.00
2023-04-17T21:13:46.466Z,100.00
2023-04-17T21:16:13.706Z,100.00
2023-04-17T21:18:40.429Z,100.00
2023-04-17T21:21:06.928Z,100.00
2023-04-17T21:23:34.487Z,100.00
2023-04-17T21:26:01.116Z,100.00
2023-04-17T21:28:27.551Z,100.00
2023-04-17T21:30:55.168Z,100.00
2023-04-17T21:33:21.658Z,100.00
2023-04-17T21:35:48.110Z,100.00
2023-04-17T21:38:14.580Z,100.00
2023-04-17T21:40:50.621Z,100.00
2023-04-17T21:43:17.829Z,100.00
2023-04-17T21:45:44.328Z,100.00
2023-04-17T21:48:10.920Z,100.00
2023-04-17T21:50:37.393Z,100.00
2023-04-17T21:53:03.829Z,100.00
2023-04-17T21:55:30.326Z,100.00
2023-04-17T21:57:56.747Z,100.00
2023-04-17T22:00:23.678Z,100.00
2023-04-17T22:02:50.245Z,100.00
2023-04-17T22:05:17.075Z,100.00
2023-04-17T22:07:54.319Z,100.00
2023-04-17T22:10:22.031Z,100.00
2023-04-17T22:12:48.572Z,100.00
2023-04-17T22:15:15.068Z,100.00
2023-04-17T22:17:41.509Z,100.00
2023-04-17T22:20:08.736Z,100.00
2023-04-17T22:22:35.373Z,100.00
2023-04-17T22:25:01.941Z,100.00
2023-04-17T22:27:29.126Z,100.00
2023-04-17T22:29:56.292Z,100.00
2023-04-17T22:32:22.808Z,99.44
2023-04-17T22:34:50.256Z,97.24
2023-04-17T22:37:16.756Z,95.33
2023-04-17T22:39:43.185Z,94.98
2023-04-17T22:42:09.802Z,94.90
2023-04-17T22:44:36.474Z,95.14
2023-04-17T22:47:03.412Z,95.01
2023-04-17T22:49:30.731Z,96.01
2023-04-17T22:51:57.173Z,95.21
2023-04-17T22:54:23.638Z,96.23
2023-04-17T22:56:50.256Z,96.56
2023-04-17T22:59:16.723Z,98.59
2023-04-17T23:01:43.186Z,97.24
2023-04-17T23:04:10.289Z,95.31
2023-04-17T23:06:36.821Z,94.91
2023-04-17T23:09:04.783Z,94.03
2023-04-17T23:11:32.630Z,93.32
2023-04-17T23:13:59.379Z,93.70
2023-04-17T23:16:26.161Z,92.80
2023-04-17T23:18:52.796Z,91.06
2023-04-17T23:21:19.391Z,90.59
2023-04-17T23:23:48.091Z,89.66
2023-04-17T23:26:15.369Z,90.93
2023-04-17T23:28:42.064Z,90.04
2023-04-17T23:31:08.569Z,89.24
2023-04-17T23:33:35.544Z,88.72
2023-04-17T23:36:02.344Z,87.46
2023-04-17T23:38:28.813Z,88.04
2023-04-17T23:40:55.393Z,86.72
2023-04-17T23:43:21.837Z,86.87
2023-04-17T23:45:48.325Z,87.77
2023-04-17T23:48:14.846Z,86.79
2023-04-17T23:50:41.399Z,87.12
2023-04-17T23:53:07.875Z,86.20
2023-04-17T23:55:34.559Z,84.29
2023-04-17T23:58:01.002Z,84.80
